Cervena, Czech Republic
Current Conditions -  °F | °C
As of 4:00 PM on Tuesday 21 Oct 2014 (Local Time) from LKMT Reporting Station
Scattered Clouds Scattered Clouds  
Wind Chill: 59°   Ceiling: Unl
Heat Index: 59°   Visibility: 6mi
Dew Point: 46°   Wind: 14mph
Humidity: 63%   Direction: 220°SW
Pressure: 29.77"   Gusts: NA
Location:  49.77°N, 17.55°E
Report Text: LKMT 211400Z 22012KT 9999 SCT029 15/08 Q1008 NOSIG
Loading
Personal Weather Stations






























Interactive Weather Map
Tropical Storm Tracking
New forecast layout! Learn more

10-Day Weather Forecast

Advertisements
Track Severe Weather on mobile